createdAt,value
2017-07-05T00:00:16.394Z,26.63
2017-07-05T00:01:16.168Z,26.57
2017-07-05T00:02:16.190Z,26.5
2017-07-05T00:03:15.897Z,26.57
2017-07-05T00:04:16.579Z,26.6
2017-07-05T00:05:16.579Z,26.57
2017-07-05T00:06:16.300Z,26.62
2017-07-05T00:07:16.662Z,26.6
2017-07-05T00:08:16.685Z,26.58
2017-07-05T00:09:16.714Z,26.51
2017-07-05T00:10:16.995Z,26.54
2017-07-05T00:11:16.767Z,26.48
2017-07-05T00:12:16.502Z,26.52
2017-07-05T00:13:16.833Z,26.55
2017-07-05T00:14:16.866Z,26.48
2017-07-05T00:15:17.194Z,26.58
2017-07-05T00:16:16.920Z,26.52
2017-07-05T00:17:16.624Z,26.43
2017-07-05T00:18:16.973Z,26.48
2017-07-05T00:19:16.682Z,26.36
2017-07-05T00:20:16.697Z,26.51
2017-07-05T00:21:17.068Z,26.52
2017-07-05T00:22:17.093Z,26.43
2017-07-05T00:23:17.133Z,26.54
2017-07-05T00:24:16.838Z,26.52
2017-07-05T00:25:17.119Z,26.47
2017-07-05T00:26:16.895Z,26.52
2017-07-05T00:27:16.928Z,26.5
2017-07-05T00:28:17.273Z,26.51
2017-07-05T00:29:16.983Z,26.47
2017-07-05T00:30:17.306Z,26.44
2017-07-05T00:31:17.368Z,26.36
2017-07-05T00:32:17.393Z,26.39
2017-07-05T00:33:17.423Z,26.45
2017-07-05T00:34:17.127Z,26.43
2017-07-05T00:35:17.722Z,26.39
2017-07-05T00:36:17.513Z,26.43
2017-07-05T00:37:17.216Z,26.36
2017-07-05T00:38:16.921Z,26.4
2017-07-05T00:39:17.585Z,26.4
2017-07-05T00:40:17.291Z,26.4
2017-07-05T00:41:17.652Z,26.37
2017-07-05T00:42:17.685Z,26.39
2017-07-05T00:43:17.710Z,26.43
2017-07-05T00:44:17.717Z,26.4
2017-07-05T00:45:17.755Z,26.39
2017-07-05T00:46:17.795Z,26.39
2017-07-05T00:47:17.813Z,26.35
2017-07-05T00:48:17.529Z,26.29
2017-07-05T00:49:17.238Z,26.37
2017-07-05T00:50:17.908Z,26.3
2017-07-05T00:51:17.620Z,26.28
2017-07-05T00:52:17.648Z,26.36
2017-07-05T00:53:17.678Z,26.32
2017-07-05T00:54:17.710Z,26.32
2017-07-05T00:55:18.063Z,26.29
2017-07-05T00:56:18.097Z,26.36
2017-07-05T00:57:18.113Z,26.33
2017-07-05T00:58:18.149Z,26.25
2017-07-05T00:59:17.853Z,26.28
2017-07-05T01:00:17.879Z,26.3
2017-07-05T01:01:18.227Z,26.3
2017-07-05T01:02:18.254Z,26.28
2017-07-05T01:03:18.284Z,26.29
2017-07-05T01:04:18.314Z,26.32
2017-07-05T01:05:18.339Z,26.33
2017-07-05T01:06:18.368Z,26.28
2017-07-05T01:07:18.399Z,26.29
2017-07-05T01:08:18.429Z,26.29
2017-07-05T01:09:18.147Z,26.26
2017-07-05T01:10:18.491Z,26.28
2017-07-05T01:11:18.523Z,26.23
2017-07-05T01:12:18.541Z,26.32
2017-07-05T01:13:18.568Z,26.32
2017-07-05T01:14:18.286Z,26.32
2017-07-05T01:15:18.632Z,26.32
2017-07-05T01:16:18.655Z,26.21
2017-07-05T01:17:18.382Z,26.26
2017-07-05T01:18:18.086Z,26.18
2017-07-05T01:19:18.435Z,26.23
2017-07-05T01:20:18.777Z,26.32
2017-07-05T01:21:18.785Z,26.33
2017-07-05T01:22:18.516Z,26.26
2017-07-05T01:23:18.546Z,26.25
2017-07-05T01:24:18.953Z,26.21
2017-07-05T01:25:18.919Z,26.3
2017-07-05T01:26:18.871Z,26.23
2017-07-05T01:27:18.979Z,26.28
2017-07-05T01:28:19.014Z,26.28
2017-07-05T01:29:19.046Z,26.13
2017-07-05T01:30:18.755Z,26.17
2017-07-05T01:31:19.072Z,26.17
2017-07-05T01:32:18.796Z,26.2
2017-07-05T01:33:19.164Z,26.12
2017-07-05T01:34:18.867Z,26.21
2017-07-05T01:35:19.202Z,26.17
2017-07-05T01:36:19.220Z,26.17
2017-07-05T01:37:19.268Z,26.13
2017-07-05T01:38:18.978Z,26.07
2017-07-05T01:39:19.326Z,26.09
2017-07-05T01:40:19.035Z,26.15
2017-07-05T01:41:19.632Z,26.1
2017-07-05T01:42:19.413Z,26.13
2017-07-05T01:43:19.445Z,26.21
2017-07-05T01:44:19.470Z,26.07
2017-07-05T01:45:19.503Z,26.09
2017-07-05T01:46:19.828Z,26.1
2017-07-05T01:47:19.244Z,26.18
2017-07-05T01:48:19.582Z,26.2
2017-07-05T01:49:19.286Z,26.18
2017-07-05T01:50:19.659Z,26.13
2017-07-05T01:51:19.927Z,26.15
2017-07-05T01:52:19.384Z,26.09
2017-07-05T01:53:19.413Z,26.18
2017-07-05T01:54:19.786Z,26.13
2017-07-05T01:55:19.791Z,26.17
2017-07-05T01:56:20.111Z,26.15
2017-07-05T01:57:19.849Z,26.1
2017-07-05T01:58:19.877Z,26.12
2017-07-05T01:59:19.901Z,26.07
2017-07-05T02:00:19.926Z,26.07
2017-07-05T02:01:20.267Z,26.1
2017-07-05T02:02:19.355Z,26.07
2017-07-05T02:03:19.702Z,26.1
2017-07-05T02:04:19.410Z,26.1
2017-07-05T02:05:19.763Z,26.1
2017-07-05T02:06:20.050Z,26.1
2017-07-05T02:07:19.496Z,26.1
2017-07-05T02:08:19.841Z,26.09
2017-07-05T02:09:20.193Z,26.1
2017-07-05T02:10:19.899Z,26.1
2017-07-05T02:11:19.863Z,26.06
2017-07-05T02:12:19.964Z,26.1
2017-07-05T02:13:20.357Z,26.06
2017-07-05T02:14:20.006Z,26.07
2017-07-05T02:15:20.366Z,26.1
2017-07-05T02:16:20.379Z,26.06
2017-07-05T02:17:20.093Z,26.12
2017-07-05T02:18:20.462Z,26.1
2017-07-05T02:19:20.479Z,26.1
2017-07-05T02:20:20.515Z,26.01
2017-07-05T02:21:20.795Z,26.05
2017-07-05T02:22:19.927Z,26.02
2017-07-05T02:23:20.589Z,26.09
2017-07-05T02:24:20.618Z,26.06
2017-07-05T02:25:20.335Z,26.12
2017-07-05T02:26:20.703Z,26.05
2017-07-05T02:27:20.388Z,26.02
2017-07-05T02:28:20.741Z,26.01
2017-07-05T02:29:20.125Z,26.07
2017-07-05T02:30:20.476Z,26.09
2017-07-05T02:31:20.799Z,26.01
2017-07-05T02:32:20.862Z,26.01
2017-07-05T02:33:20.882Z,26.1
2017-07-05T02:34:20.918Z,26.07
2017-07-05T02:35:20.940Z,26.02
2017-07-05T02:36:21.223Z,26.06
2017-07-05T02:37:20.997Z,26.09
2017-07-05T02:38:21.041Z,26.07
2017-07-05T02:39:20.731Z,26.05
2017-07-05T02:40:20.780Z,26.01
2017-07-05T02:41:21.043Z,26.12
2017-07-05T02:42:21.148Z,26.06
2017-07-05T02:43:20.896Z,25.99
2017-07-05T02:44:21.199Z,26.02
2017-07-05T02:45:20.583Z,25.9
2017-07-05T02:46:21.239Z,26.06
2017-07-05T02:47:21.289Z,26.1
2017-07-05T02:48:21.314Z,26.05
2017-07-05T02:49:21.019Z,26.07
2017-07-05T02:50:21.047Z,26.06
2017-07-05T02:51:21.321Z,26.01
2017-07-05T02:52:21.105Z,26.05
2017-07-05T02:53:20.817Z,26.01
2017-07-05T02:54:21.162Z,26.06
2017-07-05T02:55:21.204Z,25.98
2017-07-05T02:56:21.846Z,26.02
2017-07-05T02:57:21.643Z,26.09
2017-07-05T02:58:21.606Z,26.01
2017-07-05T02:59:21.635Z,25.95
2017-07-05T03:00:21.342Z,25.92
2017-07-05T03:01:21.616Z,26.1
2017-07-05T03:02:21.724Z,25.95
2017-07-05T03:03:21.742Z,26.06
2017-07-05T03:04:21.766Z,26.05
2017-07-05T03:05:21.487Z,25.91
2017-07-05T03:06:22.135Z,25.9
2017-07-05T03:07:21.540Z,25.98
2017-07-05T03:08:21.897Z,26.02
2017-07-05T03:09:21.602Z,25.9
2017-07-05T03:10:21.949Z,25.98
2017-07-05T03:11:21.956Z,26.02
2017-07-05T03:12:22.052Z,26.02
2017-07-05T03:13:22.082Z,25.97
2017-07-05T03:14:21.426Z,25.95
2017-07-05T03:15:21.759Z,26.02
2017-07-05T03:16:22.043Z,25.94
2017-07-05T03:17:22.141Z,25.99
2017-07-05T03:18:22.190Z,25.92
2017-07-05T03:19:21.879Z,25.88
2017-07-05T03:20:21.908Z,25.87
2017-07-05T03:21:22.494Z,25.87
2017-07-05T03:22:22.280Z,25.91
2017-07-05T03:23:22.318Z,25.94
2017-07-05T03:24:22.350Z,25.97
2017-07-05T03:25:22.367Z,25.91
2017-07-05T03:26:22.699Z,25.98
2017-07-05T03:27:22.117Z,25.9
2017-07-05T03:28:22.138Z,25.92
2017-07-05T03:29:22.159Z,25.91
2017-07-05T03:30:22.513Z,25.97
2017-07-05T03:31:21.912Z,25.91
2017-07-05T03:32:22.258Z,25.95
2017-07-05T03:33:21.969Z,25.87
2017-07-05T03:34:22.315Z,25.97
2017-07-05T03:35:22.342Z,25.94
2017-07-05T03:36:22.688Z,25.92
2017-07-05T03:37:22.725Z,25.88
2017-07-05T03:38:22.106Z,25.95
2017-07-05T03:39:22.458Z,25.94
2017-07-05T03:40:22.807Z,25.91
2017-07-05T03:41:22.503Z,25.91
2017-07-05T03:42:22.541Z,25.88
2017-07-05T03:43:22.890Z,25.94
2017-07-05T03:44:22.917Z,25.91
2017-07-05T03:45:22.618Z,25.92
2017-07-05T03:46:22.984Z,25.9
2017-07-05T03:47:22.997Z,25.92
2017-07-05T03:48:22.717Z,25.91
2017-07-05T03:49:22.741Z,25.88
2017-07-05T03:50:22.772Z,25.91
2017-07-05T03:51:22.801Z,25.94
2017-07-05T03:52:22.833Z,25.97
2017-07-05T03:53:22.854Z,25.87
2017-07-05T03:54:23.197Z,25.92
2017-07-05T03:55:22.911Z,25.92
2017-07-05T03:56:23.260Z,25.91
2017-07-05T03:57:23.288Z,25.88
2017-07-05T03:58:23.324Z,25.87
2017-07-05T03:59:23.342Z,25.9
2017-07-05T04:00:23.375Z,25.91
2017-07-05T04:01:22.769Z,25.97
2017-07-05T04:02:23.355Z,25.8
2017-07-05T04:03:23.466Z,25.92
2017-07-05T04:04:23.485Z,25.91
2017-07-05T04:05:23.517Z,25.91
2017-07-05T04:06:23.552Z,25.87
2017-07-05T04:07:23.509Z,25.87
2017-07-05T04:08:23.606Z,25.94
2017-07-05T04:09:23.630Z,25.91
2017-07-05T04:10:23.664Z,25.95
2017-07-05T04:11:23.700Z,25.92
2017-07-05T04:12:23.968Z,25.9
2017-07-05T04:13:23.749Z,25.91
2017-07-05T04:14:23.454Z,25.98
2017-07-05T04:15:23.491Z,25.92
2017-07-05T04:16:23.828Z,25.9
2017-07-05T04:17:23.845Z,25.94
2017-07-05T04:18:23.561Z,25.92
2017-07-05T04:19:23.918Z,25.95
2017-07-05T04:20:23.627Z,25.92
2017-07-05T04:21:23.978Z,25.94
2017-07-05T04:22:23.984Z,25.88
2017-07-05T04:23:24.026Z,25.92
2017-07-05T04:24:24.058Z,25.91
2017-07-05T04:25:24.103Z,25.95
2017-07-05T04:26:24.115Z,25.92
2017-07-05T04:27:24.448Z,25.91
2017-07-05T04:28:23.855Z,25.88
2017-07-05T04:29:24.193Z,25.95
2017-07-05T04:30:24.235Z,25.91
2017-07-05T04:31:24.267Z,25.92
2017-07-05T04:32:24.264Z,25.95
2017-07-05T04:33:24.000Z,25.9
2017-07-05T04:34:24.030Z,25.97
2017-07-05T04:35:24.380Z,25.88
2017-07-05T04:36:24.411Z,25.9
2017-07-05T04:37:24.676Z,25.87
2017-07-05T04:38:24.465Z,25.87
2017-07-05T04:39:24.175Z,25.95
2017-07-05T04:40:24.535Z,25.9
2017-07-05T04:41:24.551Z,25.95
2017-07-05T04:42:24.545Z,25.97
2017-07-05T04:43:24.598Z,25.88
2017-07-05T04:44:24.318Z,25.99
2017-07-05T04:45:24.659Z,25.95
2017-07-05T04:46:24.364Z,25.87
2017-07-05T04:47:24.701Z,25.87
2017-07-05T04:48:24.750Z,25.94
2017-07-05T04:49:24.787Z,25.95
2017-07-05T04:50:24.802Z,25.88
2017-07-05T04:51:24.510Z,25.94
2017-07-05T04:52:24.792Z,25.91
2017-07-05T04:53:24.889Z,25.91
2017-07-05T04:54:24.611Z,26.01
2017-07-05T04:55:24.635Z,25.9
2017-07-05T04:56:24.971Z,25.87
2017-07-05T04:57:24.984Z,25.91
2017-07-05T04:58:24.398Z,25.87
2017-07-05T04:59:25.070Z,25.91
2017-07-05T05:00:24.780Z,25.95
2017-07-05T05:01:25.120Z,25.88
2017-07-05T05:02:25.440Z,25.97
2017-07-05T05:03:25.186Z,25.94
2017-07-05T05:04:25.202Z,25.97
2017-07-05T05:05:24.594Z,25.92
2017-07-05T05:06:25.264Z,25.88
2017-07-05T05:07:25.293Z,25.91
2017-07-05T05:08:25.370Z,25.9
2017-07-05T05:09:25.346Z,25.92
2017-07-05T05:10:25.058Z,25.9
2017-07-05T05:11:25.408Z,25.92
2017-07-05T05:12:24.796Z,25.82
2017-07-05T05:13:25.137Z,25.9
2017-07-05T05:14:25.167Z,25.95
2017-07-05T05:15:25.199Z,25.94
2017-07-05T05:16:25.540Z,25.94
2017-07-05T05:17:25.582Z,25.94
2017-07-05T05:18:25.673Z,25.91
2017-07-05T05:19:25.631Z,25.91
2017-07-05T05:20:25.338Z,25.94
2017-07-05T05:21:25.374Z,25.95
2017-07-05T05:22:25.715Z,25.92
2017-07-05T05:23:25.406Z,25.91
2017-07-05T05:24:25.463Z,25.95
2017-07-05T05:25:25.163Z,25.99
2017-07-05T05:26:25.508Z,25.94
2017-07-05T05:27:25.549Z,25.94
2017-07-05T05:28:25.867Z,25.92
2017-07-05T05:29:25.910Z,25.94
2017-07-05T05:30:25.622Z,25.94
2017-07-05T05:31:25.655Z,25.92
2017-07-05T05:32:25.997Z,26.02
2017-07-05T05:33:26.281Z,25.9
2017-07-05T05:34:25.743Z,25.9
2017-07-05T05:35:25.771Z,25.87
2017-07-05T05:36:25.793Z,25.9
2017-07-05T05:37:26.148Z,25.92
2017-07-05T05:38:26.479Z,25.95
2017-07-05T05:39:26.210Z,25.91
2017-07-05T05:40:26.231Z,25.94
2017-07-05T05:41:25.620Z,25.92
2017-07-05T05:42:25.967Z,26.05
2017-07-05T05:43:26.576Z,25.95
2017-07-05T05:44:26.030Z,26.02
2017-07-05T05:45:26.378Z,25.95
2017-07-05T05:46:26.080Z,25.97
2017-07-05T05:47:26.437Z,25.88
2017-07-05T05:48:26.713Z,25.92
2017-07-05T05:49:26.487Z,25.99
2017-07-05T05:50:26.507Z,26.09
2017-07-05T05:51:26.548Z,26.05
2017-07-05T05:52:26.578Z,26.05
2017-07-05T05:53:26.258Z,26.06
2017-07-05T05:54:26.636Z,26.01
2017-07-05T05:55:26.668Z,26.06
2017-07-05T05:56:26.834Z,26.09
2017-07-05T05:57:26.717Z,26.06
2017-07-05T05:58:26.998Z,26.09
2017-07-05T05:59:26.777Z,26.06
2017-07-05T06:00:26.497Z,26.06
2017-07-05T06:01:26.517Z,26.05
2017-07-05T06:02:26.867Z,26.05
2017-07-05T06:03:26.874Z,26.05
2017-07-05T06:04:26.927Z,26.01
2017-07-05T06:05:26.949Z,26.01
2017-07-05T06:06:26.337Z,26.06
2017-07-05T06:07:27.005Z,26.07
2017-07-05T06:08:27.281Z,26.05
2017-07-05T06:09:27.062Z,26.01
2017-07-05T06:10:27.105Z,26.05
2017-07-05T06:11:26.804Z,26.09
2017-07-05T06:12:26.838Z,26.1
2017-07-05T06:13:27.106Z,26.02
2017-07-05T06:14:27.262Z,26.07
2017-07-05T06:15:27.231Z,26.1
2017-07-05T06:16:26.624Z,26.13
2017-07-05T06:17:27.289Z,26.09
2017-07-05T06:18:27.574Z,26.12
2017-07-05T06:19:27.022Z,26.13
2017-07-05T06:20:27.379Z,26.09
2017-07-05T06:21:26.769Z,26.1
2017-07-05T06:22:27.104Z,26.09
2017-07-05T06:23:27.150Z,26.15
2017-07-05T06:24:27.499Z,26.13
2017-07-05T06:25:27.590Z,26.07
2017-07-05T06:26:27.552Z,26.1
2017-07-05T06:27:27.582Z,26.15
2017-07-05T06:28:27.615Z,26.17
2017-07-05T06:29:27.639Z,26.12
2017-07-05T06:30:27.672Z,26.13
2017-07-05T06:31:27.377Z,26.17
2017-07-05T06:32:27.409Z,26.15
2017-07-05T06:33:27.749Z,26.07
2017-07-05T06:34:27.471Z,26.13
2017-07-05T06:35:27.495Z,26.17
2017-07-05T06:36:27.840Z,26.2
2017-07-05T06:37:27.869Z,26.2
2017-07-05T06:38:27.258Z,26.07
2017-07-05T06:39:27.608Z,26.26
2017-07-05T06:40:27.316Z,26.18
2017-07-05T06:41:27.666Z,26.23
2017-07-05T06:42:27.697Z,26.21
2017-07-05T06:43:27.726Z,26.17
2017-07-05T06:44:27.751Z,26.21
2017-07-05T06:45:27.778Z,26.26
2017-07-05T06:46:28.127Z,26.26
2017-07-05T06:47:27.833Z,26.21
2017-07-05T06:48:27.861Z,26.23
2017-07-05T06:49:28.139Z,26.21
2017-07-05T06:50:28.244Z,26.28
2017-07-05T06:51:27.956Z,26.18
2017-07-05T06:52:27.654Z,26.3
2017-07-05T06:53:28.322Z,26.3
2017-07-05T06:54:28.286Z,26.3
2017-07-05T06:55:28.384Z,26.29
2017-07-05T06:56:28.412Z,26.26
2017-07-05T06:57:28.125Z,26.33
2017-07-05T06:58:28.474Z,26.28
2017-07-05T06:59:28.428Z,26.29
2017-07-05T07:00:28.206Z,26.3
2017-07-05T07:01:28.552Z,26.28
2017-07-05T07:02:28.589Z,26.32
2017-07-05T07:03:28.616Z,26.33
2017-07-05T07:04:28.619Z,26.3
2017-07-05T07:05:28.353Z,26.26
2017-07-05T07:06:28.377Z,26.36
2017-07-05T07:07:28.732Z,26.26
2017-07-05T07:08:28.758Z,26.29
2017-07-05T07:09:29.084Z,26.35
2017-07-05T07:10:28.491Z,26.3
2017-07-05T07:11:28.524Z,26.39
2017-07-05T07:12:28.557Z,26.32
2017-07-05T07:13:28.894Z,26.29
2017-07-05T07:14:28.850Z,26.33
2017-07-05T07:15:28.643Z,26.32
2017-07-05T07:16:28.993Z,26.28
2017-07-05T07:17:28.701Z,26.36
2017-07-05T07:18:29.057Z,26.33
2017-07-05T07:19:29.055Z,26.39
2017-07-05T07:20:29.093Z,26.35
2017-07-05T07:21:28.816Z,26.37
2017-07-05T07:22:28.833Z,26.37
2017-07-05T07:23:28.870Z,26.39
2017-07-05T07:24:28.884Z,26.4
2017-07-05T07:25:28.927Z,26.39
2017-07-05T07:26:28.965Z,26.4
2017-07-05T07:27:29.314Z,26.44
2017-07-05T07:28:29.334Z,26.36
2017-07-05T07:29:29.297Z,26.44
2017-07-05T07:30:29.395Z,26.39
2017-07-05T07:31:29.096Z,26.4
2017-07-05T07:32:29.134Z,26.39
2017-07-05T07:33:29.474Z,26.4
2017-07-05T07:34:29.488Z,26.39
2017-07-05T07:35:29.541Z,26.37
2017-07-05T07:36:29.244Z,26.36
2017-07-05T07:37:29.593Z,26.37
2017-07-05T07:38:29.623Z,26.44
2017-07-05T07:39:29.634Z,26.45
2017-07-05T07:40:29.684Z,26.44
2017-07-05T07:41:29.752Z,26.48
2017-07-05T07:42:29.733Z,26.5
2017-07-05T07:43:29.766Z,26.5
2017-07-05T07:44:30.055Z,26.52
2017-07-05T07:45:29.567Z,26.51
2017-07-05T07:46:29.860Z,26.52
2017-07-05T07:47:29.565Z,26.51
2017-07-05T07:48:29.914Z,26.55
2017-07-05T07:49:30.194Z,26.57
2017-07-05T07:50:29.327Z,26.54
2017-07-05T07:51:29.685Z,26.54
2017-07-05T07:52:29.710Z,26.6
2017-07-05T07:53:29.407Z,26.52
2017-07-05T07:54:30.063Z,26.51
2017-07-05T07:55:30.116Z,26.54
2017-07-05T07:56:29.825Z,26.57
2017-07-05T07:57:29.845Z,26.5
2017-07-05T07:58:30.210Z,26.55
2017-07-05T07:59:30.482Z,26.51
2017-07-05T08:00:30.259Z,26.5
2017-07-05T08:01:30.296Z,26.66
2017-07-05T08:02:29.991Z,26.67
2017-07-05T08:03:30.024Z,26.69
2017-07-05T08:04:30.625Z,26.67
2017-07-05T08:05:30.405Z,26.63
2017-07-05T08:06:29.788Z,26.63
2017-07-05T08:07:30.458Z,26.63
2017-07-05T08:08:30.486Z,26.62
2017-07-05T08:09:30.203Z,26.75
2017-07-05T08:10:30.227Z,26.62
2017-07-05T08:11:30.580Z,26.66
2017-07-05T08:12:30.301Z,26.65
2017-07-05T08:13:30.633Z,26.76
2017-07-05T08:14:30.672Z,26.65
2017-07-05T08:15:30.699Z,26.66
2017-07-05T08:16:30.398Z,26.7
2017-07-05T08:17:30.430Z,26.62
2017-07-05T08:18:30.790Z,26.73
2017-07-05T08:19:30.491Z,26.81
2017-07-05T08:20:30.196Z,26.72
2017-07-05T08:21:30.552Z,26.75
2017-07-05T08:22:30.896Z,26.7
2017-07-05T08:23:30.918Z,26.72
2017-07-05T08:24:30.635Z,26.75
2017-07-05T08:25:31.035Z,26.72
2017-07-05T08:26:30.704Z,26.77
2017-07-05T08:27:30.726Z,26.72
2017-07-05T08:28:31.074Z,26.73
2017-07-05T08:29:30.779Z,26.84
2017-07-05T08:30:31.130Z,26.75
2017-07-05T08:31:31.164Z,26.75
2017-07-05T08:32:31.182Z,26.69
2017-07-05T08:33:31.221Z,26.76
2017-07-05T08:34:30.925Z,26.75
2017-07-05T08:35:31.251Z,26.8
2017-07-05T08:36:31.303Z,26.8
2017-07-05T08:37:31.336Z,26.8
2017-07-05T08:38:31.362Z,26.84
2017-07-05T08:39:31.386Z,26.81
2017-07-05T08:40:31.712Z,26.8
2017-07-05T08:41:31.145Z,26.82
2017-07-05T08:42:31.157Z,26.81
2017-07-05T08:43:31.512Z,26.81
2017-07-05T08:44:31.539Z,26.85
2017-07-05T08:45:31.850Z,26.77
2017-07-05T08:46:31.281Z,26.84
2017-07-05T08:47:31.623Z,26.84
2017-07-05T08:48:31.658Z,26.84
2017-07-05T08:49:31.683Z,26.88
2017-07-05T08:50:32.012Z,26.88
2017-07-05T08:51:31.105Z,26.85
2017-07-05T08:52:31.774Z,26.89
2017-07-05T08:53:31.802Z,26.87
2017-07-05T08:54:31.823Z,26.85
2017-07-05T08:55:31.471Z,26.89
2017-07-05T08:56:31.568Z,26.88
2017-07-05T08:57:31.918Z,26.92
2017-07-05T08:58:31.629Z,26.95
2017-07-05T08:59:31.991Z,26.99
2017-07-05T09:00:32.302Z,26.88
2017-07-05T09:01:31.712Z,26.95
2017-07-05T09:02:32.066Z,26.94
2017-07-05T09:03:32.089Z,26.91
2017-07-05T09:04:31.798Z,26.89
2017-07-05T09:05:32.387Z,26.99
2017-07-05T09:06:31.536Z,26.99
2017-07-05T09:07:31.889Z,26.97
2017-07-05T09:08:32.229Z,26.94
2017-07-05T09:09:32.262Z,26.91
2017-07-05T09:10:32.548Z,27.04
2017-07-05T09:11:32.317Z,26.91
2017-07-05T09:12:32.353Z,27.04
2017-07-05T09:13:32.385Z,27.02
2017-07-05T09:14:32.410Z,27.04
2017-07-05T09:15:32.739Z,26.99
2017-07-05T09:16:32.145Z,27.07
2017-07-05T09:17:32.173Z,27
2017-07-05T09:18:32.525Z,27.04
2017-07-05T09:19:32.237Z,27.02
2017-07-05T09:20:32.507Z,27.03
2017-07-05T09:21:32.298Z,27.04
2017-07-05T09:22:32.637Z,27.06
2017-07-05T09:23:32.679Z,27.02
2017-07-05T09:24:32.703Z,27.1
2017-07-05T09:25:32.971Z,27.09
2017-07-05T09:26:32.760Z,27.1
2017-07-05T09:27:32.786Z,27.06
2017-07-05T09:28:32.182Z,27.06
2017-07-05T09:29:32.524Z,27.09
2017-07-05T09:30:32.859Z,27.14
2017-07-05T09:31:32.904Z,27.09
2017-07-05T09:32:32.946Z,27.1
2017-07-05T09:33:32.647Z,27.07
2017-07-05T09:34:32.678Z,27.1
2017-07-05T09:35:33.321Z,27.13
2017-07-05T09:36:32.736Z,27.07
2017-07-05T09:37:33.079Z,27.12
2017-07-05T09:38:32.471Z,27.12
2017-07-05T09:39:32.824Z,27.14
2017-07-05T09:40:33.473Z,27.09
2017-07-05T09:41:33.200Z,27.06
2017-07-05T09:42:33.236Z,27.12
2017-07-05T09:43:32.934Z,27.12
2017-07-05T09:44:32.635Z,27.12
2017-07-05T09:45:32.995Z,27.18
2017-07-05T09:46:33.023Z,27.09
2017-07-05T09:47:33.377Z,27.12
2017-07-05T09:48:33.089Z,27.1
2017-07-05T09:49:33.115Z,27.24
2017-07-05T09:50:33.455Z,27.12
2017-07-05T09:51:33.496Z,27.12
2017-07-05T09:52:33.199Z,27.21
2017-07-05T09:53:33.551Z,27.14
2017-07-05T09:54:33.567Z,27.22
2017-07-05T09:55:33.603Z,27.14
2017-07-05T09:56:33.315Z,27.17
2017-07-05T09:57:33.673Z,27.18
2017-07-05T09:58:33.373Z,27.13
2017-07-05T09:59:33.723Z,27.12
2017-07-05T10:00:33.754Z,27.19
2017-07-05T10:01:33.784Z,27.29
2017-07-05T10:02:33.820Z,27.17
2017-07-05T10:03:33.528Z,27.25
2017-07-05T10:04:33.555Z,27.21
2017-07-05T10:05:33.904Z,27.25
2017-07-05T10:06:33.621Z,27.31
2017-07-05T10:07:33.642Z,27.27
2017-07-05T10:08:33.666Z,27.31
2017-07-05T10:09:34.015Z,27.25
2017-07-05T10:10:34.055Z,27.27
2017-07-05T10:11:34.083Z,27.28
2017-07-05T10:12:33.794Z,27.31
2017-07-05T10:13:34.129Z,27.31
2017-07-05T10:14:34.171Z,27.31
2017-07-05T10:15:34.216Z,27.29
2017-07-05T10:16:34.227Z,27.21
2017-07-05T10:17:33.938Z,27.32
2017-07-05T10:18:34.287Z,27.29
2017-07-05T10:19:33.991Z,27.37
2017-07-05T10:20:34.356Z,27.32
2017-07-05T10:21:34.357Z,27.29
2017-07-05T10:22:34.077Z,27.39
2017-07-05T10:23:34.430Z,27.31
2017-07-05T10:24:34.465Z,27.36
2017-07-05T10:25:34.487Z,27.41
2017-07-05T10:26:34.516Z,27.4
2017-07-05T10:27:34.554Z,27.39
2017-07-05T10:28:34.262Z,27.39
2017-07-05T10:29:34.293Z,27.4
2017-07-05T10:30:34.644Z,27.4
2017-07-05T10:31:34.036Z,27.37
2017-07-05T10:32:34.377Z,27.46
2017-07-05T10:33:34.722Z,27.5
2017-07-05T10:34:34.760Z,27.5
2017-07-05T10:35:34.460Z,27.5
2017-07-05T10:36:35.113Z,27.51
2017-07-05T10:37:34.201Z,27.5
2017-07-05T10:38:34.878Z,27.57
2017-07-05T10:39:34.904Z,27.5
2017-07-05T10:40:34.936Z,27.5
2017-07-05T10:41:35.221Z,27.57
2017-07-05T10:42:34.997Z,27.55
2017-07-05T10:43:35.022Z,27.6
2017-07-05T10:44:35.054Z,27.5
2017-07-05T10:45:34.765Z,27.6
2017-07-05T10:46:35.045Z,27.6
2017-07-05T10:47:34.830Z,27.62
2017-07-05T10:48:35.170Z,27.55
2017-07-05T10:49:35.258Z,27.6
2017-07-05T10:50:35.233Z,27.62
2017-07-05T10:51:35.508Z,27.6
2017-07-05T10:52:34.965Z,27.62
2017-07-05T10:53:35.002Z,27.6
2017-07-05T10:54:35.033Z,27.66
2017-07-05T10:55:35.384Z,27.63
2017-07-05T10:56:35.333Z,27.7
2017-07-05T10:57:35.127Z,27.63
2017-07-05T10:58:35.149Z,27.63
2017-07-05T10:59:34.859Z,27.6
2017-07-05T11:00:35.204Z,27.63
2017-07-05T11:01:35.805Z,27.65
2017-07-05T11:02:35.587Z,27.66
2017-07-05T11:03:35.599Z,27.63
2017-07-05T11:04:35.316Z,27.66
2017-07-05T11:05:35.348Z,27.69
2017-07-05T11:06:35.640Z,27.72
2017-07-05T11:07:35.731Z,27.72
2017-07-05T11:08:35.757Z,27.67
2017-07-05T11:09:35.787Z,27.72
2017-07-05T11:10:35.823Z,27.69
2017-07-05T11:11:36.103Z,27.77
2017-07-05T11:12:35.888Z,27.79
2017-07-05T11:13:35.594Z,27.77
2017-07-05T11:14:35.935Z,27.69
2017-07-05T11:15:35.332Z,27.75
2017-07-05T11:16:35.925Z,27.72
2017-07-05T11:17:36.026Z,27.75
2017-07-05T11:18:35.746Z,27.75
2017-07-05T11:19:35.777Z,27.79
2017-07-05T11:20:35.818Z,27.84
2017-07-05T11:21:35.808Z,27.81
2017-07-05T11:22:35.527Z,27.81
2017-07-05T11:23:35.561Z,27.82
2017-07-05T11:24:36.240Z,27.85
2017-07-05T11:25:35.944Z,27.9
2017-07-05T11:26:36.554Z,27.84
2017-07-05T11:27:36.342Z,27.79
2017-07-05T11:28:36.052Z,27.81
2017-07-05T11:29:36.064Z,27.9
2017-07-05T11:30:36.103Z,27.77
2017-07-05T11:31:36.120Z,27.88
2017-07-05T11:32:36.163Z,27.94
2017-07-05T11:33:36.191Z,27.87
2017-07-05T11:34:36.216Z,27.93
2017-07-05T11:35:36.240Z,27.87
2017-07-05T11:36:36.273Z,27.96
2017-07-05T11:37:36.321Z,28.02
2017-07-05T11:38:36.659Z,28.04
2017-07-05T11:39:36.360Z,28.03
2017-07-05T11:40:36.407Z,28.15
2017-07-05T11:41:36.749Z,28.22
2017-07-05T11:42:36.463Z,28.31
2017-07-05T11:43:36.807Z,28.44
2017-07-05T11:44:36.504Z,28.55
2017-07-05T11:45:36.929Z,28.64
2017-07-05T11:46:36.577Z,28.68
2017-07-05T11:47:36.610Z,28.89
2017-07-05T11:48:36.642Z,28.98
2017-07-05T11:49:36.668Z,29.16
2017-07-05T11:50:36.374Z,29.21
2017-07-05T11:51:36.730Z,29.41
2017-07-05T11:52:37.332Z,29.49
2017-07-05T11:53:37.168Z,29.61
2017-07-05T11:54:37.148Z,29.73
2017-07-05T11:55:36.856Z,29.76
2017-07-05T11:56:37.210Z,29.95
2017-07-05T11:57:37.174Z,29.92
2017-07-05T11:58:36.954Z,30.13
2017-07-05T11:59:37.309Z,30.22
2017-07-05T12:00:37.341Z,30.32
2017-07-05T12:01:37.430Z,30.43
2017-07-05T12:02:37.338Z,30.54
2017-07-05T12:03:36.804Z,30.54
2017-07-05T12:04:36.832Z,30.7
2017-07-05T12:05:37.502Z,30.73
2017-07-05T12:06:37.529Z,30.83
2017-07-05T12:07:37.538Z,30.95
2017-07-05T12:08:37.594Z,30.89
2017-07-05T12:09:37.308Z,31.06
2017-07-05T12:10:37.349Z,31.14
2017-07-05T12:11:37.381Z,31.17
2017-07-05T12:12:37.653Z,31.23
2017-07-05T12:13:37.756Z,31.29
2017-07-05T12:14:37.792Z,31.34
2017-07-05T12:15:37.508Z,31.47
2017-07-05T12:16:37.868Z,31.51
2017-07-05T12:17:37.818Z,31.58
2017-07-05T12:18:37.611Z,31.69
2017-07-05T12:19:37.641Z,31.73
2017-07-05T12:20:37.676Z,31.72
2017-07-05T12:21:37.702Z,31.88
2017-07-05T12:22:37.675Z,32.01
2017-07-05T12:23:38.095Z,32
2017-07-05T12:24:37.804Z,31.96
2017-07-05T12:25:37.845Z,32.15
2017-07-05T12:26:38.189Z,32.06
2017-07-05T12:27:38.530Z,32.22
2017-07-05T12:28:38.255Z,32.19
2017-07-05T12:29:38.301Z,32.28
2017-07-05T12:30:38.329Z,32.35
2017-07-05T12:31:38.362Z,32.37
2017-07-05T12:32:38.079Z,32.4
2017-07-05T12:33:38.439Z,32.5
2017-07-05T12:34:38.151Z,32.44
2017-07-05T12:35:38.177Z,32.55
2017-07-05T12:36:38.534Z,32.6
2017-07-05T12:37:38.255Z,32.59
2017-07-05T12:38:38.603Z,32.65
2017-07-05T12:39:38.637Z,32.62
2017-07-05T12:40:38.345Z,32.63
2017-07-05T12:41:38.706Z,32.72
2017-07-05T12:42:38.735Z,32.77
2017-07-05T12:43:38.779Z,32.77
2017-07-05T12:44:38.488Z,32.81
2017-07-05T12:45:38.529Z,32.84
2017-07-05T12:46:38.567Z,32.89
2017-07-05T12:47:38.596Z,32.85
2017-07-05T12:48:38.617Z,32.96
2017-07-05T12:49:38.984Z,33
2017-07-05T12:50:38.698Z,33.04
2017-07-05T12:51:39.098Z,33.12
2017-07-05T12:52:39.087Z,33.11
2017-07-05T12:53:39.117Z,33.09
2017-07-05T12:54:38.839Z,33.09
2017-07-05T12:55:39.190Z,33.07
2017-07-05T12:56:39.226Z,33.11